Terminal Aerodrome Forecast
Issued by NWS St Louis, MO

Home | Current Version | Previous Version | Text Only | Print | Product List | Glossary On
Versions: 1 2 3 4 5 6 7 8 9 10 11 12 13 14 15 16 17 18 19 20 21 22 23 24
000
FTUS43 KLSX 052343
TAFCOU
TAF
KCOU 052343Z 0600/0624 12007KT P6SM SCT250
     FM060600 VRB03KT 5SM BR BKN150
     FM061300 31008KT P6SM BKN100
     FM061500 31012G18KT P6SM BKN080
     FM061600 31012KT P6SM SCT045
     FM061800 31012G18KT P6SM FEW200
     FM062300 29008KT P6SM SCT200=

USA.gov is the U.S. government's official web portal to all federal, state and local government web resources and services.